Time;durP1;ratioP1;P1;durP2;ratioP2;P2;SDS_P1;SDS_P2;PMS_P1;PMS_P2;Temp;Humidity;BMP_temperature;BMP_pressure;BME280_temperature;BME280_humidity;BME280_pressure;Samples;Min_cycle;Max_cycle;Signal;HPM_P1;HPM_P2
2023/07/20 00:02:44;;;;;;;4.72;1.90;;;;;;;17.13;65.38;100440.00;5073701;28;20048;-76
2023/07/20 00:05:47;;;;;;;12.27;2.92;;;;;;;16.92;66.61;100438.16;5073956;28;20512;-76
2023/07/20 00:08:51;;;;;;;9.25;2.67;;;;;;;16.93;67.25;100441.63;5074008;28;20078;-76
2023/07/20 00:11:54;;;;;;;8.35;2.08;;;;;;;16.90;67.47;100440.06;5073220;28;20040;-76
2023/07/20 00:14:57;;;;;;;7.35;2.05;;;;;;;16.79;67.58;100450.66;5073558;28;20401;-76
2023/07/20 00:18:01;;;;;;;5.65;2.60;;;;;;;16.90;66.78;100441.84;5073739;28;20558;-76
2023/07/20 00:21:04;;;;;;;5.95;2.25;;;;;;;16.89;66.69;100440.19;5072737;28;20039;-76
2023/07/20 00:24:07;;;;;;;6.47;2.15;;;;;;;16.81;67.12;100445.22;5072442;28;20074;-75
2023/07/20 00:27:10;;;;;;;5.70;2.35;;;;;;;16.66;68.09;100447.28;5072336;28;20147;-75
2023/07/20 00:30:14;;;;;;;6.47;2.25;;;;;;;16.52;68.22;100449.19;5073040;28;20500;-75
2023/07/20 00:33:21;;;;;;;4.65;2.10;;;;;;;16.51;68.14;100439.59;5072947;28;20124;-75
2023/07/20 00:36:23;;;;;;;7.20;2.72;;;;;;;16.41;68.31;100441.28;5072714;28;20075;-76
2023/07/20 00:39:27;;;;;;;5.65;2.05;;;;;;;16.34;69.02;100440.06;5061026;28;20066;-75
2023/07/20 00:42:34;;;;;;;6.80;2.42;;;;;;;16.23;69.54;100447.97;5072501;28;20055;-76
2023/07/20 00:45:38;;;;;;;5.28;2.28;;;;;;;16.32;69.12;100447.25;5072888;28;20059;-76
2023/07/20 00:48:42;;;;;;;6.20;2.38;;;;;;;16.23;68.89;100440.88;5072778;28;20578;-75
2023/07/20 00:51:47;;;;;;;8.77;2.13;;;;;;;16.20;68.83;100446.41;5073024;28;20091;-75
2023/07/20 00:54:52;;;;;;;8.77;2.08;;;;;;;16.17;68.78;100445.81;5072036;28;20059;-75
2023/07/20 00:57:55;;;;;;;3.95;2.20;;;;;;;16.14;69.29;100448.69;5071253;28;20102;-75
2023/07/20 01:00:59;;;;;;;4.35;2.15;;;;;;;16.09;69.91;100454.31;5071697;28;20062;-76
2023/07/20 01:04:02;;;;;;;6.50;2.40;;;;;;;16.09;70.32;100450.84;5071963;28;20453;-75
2023/07/20 01:07:20;;;;;;;8.18;2.58;;;;;;;15.89;70.84;100452.34;5069806;28;20051;-75
2023/07/20 01:10:34;;;;;;;6.28;2.22;;;;;;;15.93;70.43;100444.09;5069333;28;20043;-75
2023/07/20 01:13:37;;;;;;;7.93;2.28;;;;;;;15.82;70.54;100454.59;5069580;28;20047;-75
2023/07/20 01:16:41;;;;;;;8.10;2.78;;;;;;;15.84;70.37;100455.34;5069703;28;20183;-75
2023/07/20 01:19:44;;;;;;;5.45;2.35;;;;;;;15.86;70.48;100453.44;5070904;28;20071;-77
2023/07/20 01:22:57;;;;;;;4.97;2.45;;;;;;;15.80;70.52;100454.72;5072629;28;20079;-75
2023/07/20 01:26:37;;;;;;;6.30;2.55;;;;;;;15.73;70.64;100452.66;5060306;28;20093;-75
2023/07/20 01:30:14;;;;;;;5.97;2.28;;;;;;;15.59;71.28;100453.66;5072455;28;20109;-75
2023/07/20 01:33:19;;;;;;;8.48;2.53;;;;;;;15.66;70.88;100459.31;5072314;28;20127;-75
2023/07/20 01:36:24;;;;;;;4.90;2.10;;;;;;;15.67;70.89;100450.50;5071216;28;20401;-75
2023/07/20 01:39:28;;;;;;;4.60;2.05;;;;;;;15.77;70.94;100449.69;5071964;28;20051;-75
2023/07/20 01:42:31;;;;;;;5.38;2.35;;;;;;;15.85;70.95;100459.63;5071279;28;20446;-75
2023/07/20 01:45:34;;;;;;;5.03;2.40;;;;;;;15.92;71.33;100462.66;5072093;28;20098;-75
2023/07/20 01:48:38;;;;;;;6.55;2.88;;;;;;;16.00;70.96;100461.13;5072274;28;20051;-76
2023/07/20 01:51:41;;;;;;;7.25;2.35;;;;;;;16.02;71.33;100464.50;5071753;28;20043;-76
2023/07/20 01:54:44;;;;;;;6.97;2.33;;;;;;;16.02;71.33;100466.31;5072169;28;20402;-77
2023/07/20 01:57:48;;;;;;;9.98;2.38;;;;;;;16.20;70.95;100466.66;5072245;28;20137;-76
2023/07/20 02:00:51;;;;;;;5.90;2.35;;;;;;;16.23;70.54;100466.44;5070257;28;20095;-77
2023/07/20 02:03:54;;;;;;;4.97;2.13;;;;;;;16.14;71.24;100473.25;5071384;28;20044;-76
2023/07/20 02:06:57;;;;;;;5.25;2.63;;;;;;;16.15;70.66;100474.13;5071149;28;20090;-77
2023/07/20 02:10:01;;;;;;;4.18;1.77;;;;;;;16.26;70.00;100460.94;5070411;28;20048;-76
2023/07/20 02:13:04;;;;;;;8.23;2.25;;;;;;;16.07;71.07;100464.13;5070862;28;20133;-75
2023/07/20 02:16:07;;;;;;;5.03;2.10;;;;;;;16.11;70.58;100459.47;5071862;28;20425;-76
2023/07/20 02:19:10;;;;;;;7.10;2.40;;;;;;;16.13;70.43;100449.63;5071861;28;20044;-76
2023/07/20 02:22:14;;;;;;;8.32;2.30;;;;;;;16.09;71.31;100453.47;5071053;28;20410;-77
2023/07/20 02:25:17;;;;;;;6.38;2.53;;;;;;;16.18;70.82;100452.78;5071877;28;20561;-77
2023/07/20 02:28:21;;;;;;;6.38;2.47;;;;;;;16.01;71.45;100454.03;5071231;28;20090;-77
2023/07/20 02:31:24;;;;;;;7.80;2.10;;;;;;;15.86;72.21;100453.44;5071760;28;20112;-77
2023/07/20 02:34:27;;;;;;;5.70;2.22;;;;;;;16.03;70.76;100452.16;5071230;28;20055;-77
2023/07/20 02:37:32;;;;;;;7.18;2.78;;;;;;;16.15;69.11;100447.75;5071657;28;20048;-79
2023/07/20 02:40:35;;;;;;;3.97;1.90;;;;;;;16.20;68.84;100450.84;5071047;28;20039;-79
2023/07/20 02:43:39;;;;;;;5.25;2.35;;;;;;;16.21;68.70;100447.28;5071802;28;20106;-77
2023/07/20 02:46:45;;;;;;;5.50;2.10;;;;;;;16.11;69.01;100446.28;5071994;28;20135;-78
2023/07/20 02:49:51;;;;;;;7.07;2.42;;;;;;;15.78;70.63;100451.34;5071763;28;20051;-79
2023/07/20 02:53:17;;;;;;;7.45;2.92;;;;;;;15.69;71.83;100453.84;5071690;28;20055;-78
2023/07/20 02:56:22;;;;;;;6.50;2.35;;;;;;;15.71;71.11;100454.59;5070980;28;20043;-78
2023/07/20 02:59:25;;;;;;;4.15;2.40;;;;;;;15.61;71.58;100456.19;5074643;28;20349;-77
2023/07/20 03:02:30;;;;;;;4.18;2.10;;;;;;;15.51;71.72;100459.50;5073500;28;20582;-82
2023/07/20 03:05:33;;;;;;;4.47;2.28;;;;;;;15.49;71.88;100452.66;5054310;28;20048;-77
2023/07/20 03:08:36;;;;;;;6.20;2.72;;;;;;;15.31;72.34;100465.38;5061179;28;20094;-77
2023/07/20 03:11:40;;;;;;;4.78;2.20;;;;;;;15.51;71.02;100458.66;5075080;28;20678;-77
2023/07/20 03:14:43;;;;;;;4.95;2.13;;;;;;;15.44;70.83;100463.53;5075000;28;20083;-77
2023/07/20 03:17:47;;;;;;;5.72;2.60;;;;;;;15.38;71.68;100464.00;5074389;28;20410;-77
2023/07/20 03:20:53;;;;;;;5.13;2.00;;;;;;;15.46;70.97;100464.25;5074135;28;20059;-77
2023/07/20 03:23:57;;;;;;;6.40;2.20;;;;;;;15.53;70.70;100468.13;5074809;28;20129;-76
2023/07/20 03:27:00;;;;;;;5.00;2.20;;;;;;;15.28;72.05;100470.88;5073898;28;20116;-76
2023/07/20 03:30:06;;;;;;;5.10;2.80;;;;;;;15.08;73.14;100472.31;5073676;28;20043;-76
2023/07/20 03:33:10;;;;;;;4.78;2.00;;;;;;;15.22;72.62;100469.56;5074106;28;20047;-77
2023/07/20 03:36:14;;;;;;;6.18;2.67;;;;;;;15.00;73.48;100470.25;5074497;28;20043;-77
2023/07/20 03:39:17;;;;;;;5.28;2.25;;;;;;;14.93;73.87;100468.97;5073781;28;20678;-77
2023/07/20 03:42:20;;;;;;;5.43;2.25;;;;;;;14.88;73.99;100471.97;5073646;28;20563;-77
2023/07/20 03:45:27;;;;;;;4.63;2.35;;;;;;;14.82;74.52;100471.56;5074284;28;20135;-77
2023/07/20 03:48:30;;;;;;;4.57;2.30;;;;;;;14.80;74.63;100482.19;5074793;28;20121;-77
2023/07/20 03:51:35;;;;;;;4.47;2.58;;;;;;;14.93;74.17;100490.03;5073443;28;20382;-77
2023/07/20 03:54:41;;;;;;;8.13;2.25;;;;;;;14.85;74.95;100487.13;5054053;28;20099;-80
2023/07/20 03:57:44;;;;;;;6.68;2.95;;;;;;;14.79;75.62;100484.94;5053899;28;20098;-79
2023/07/20 04:00:52;;;;;;;4.20;2.30;;;;;;;14.75;75.37;100480.84;5054134;28;20488;-82
2023/07/20 04:03:55;;;;;;;6.53;2.85;;;;;;;14.69;75.57;100476.84;5053346;28;20051;-72
2023/07/20 04:07:01;;;;;;;7.63;2.67;;;;;;;14.89;74.69;100489.44;5053320;28;20402;-73
2023/07/20 04:10:08;;;;;;;4.28;2.70;;;;;;;14.67;75.06;100483.16;5053406;28;20405;-74
2023/07/20 04:13:12;;;;;;;4.93;2.53;;;;;;;14.57;75.64;100478.53;5053653;28;20131;-74
2023/07/20 04:16:15;;;;;;;4.25;2.40;;;;;;;14.70;74.71;100483.78;5071533;28;20154;-80
2023/07/20 04:19:44;;;;;;;;;;;;;;;14.85;74.13;100481.88;5062455;28;20039;-86
2023/07/20 04:22:47;;;;;;;6.05;3.03;;;;;;;14.94;73.68;100489.13;5074145;28;19920;-84
2023/07/20 04:25:52;;;;;;;5.18;2.30;;;;;;;14.86;74.34;100483.53;5056325;28;20044;-79
2023/07/20 04:28:55;;;;;;;5.93;2.80;;;;;;;14.89;74.55;100483.31;5053057;28;20099;-84
2023/07/20 04:32:11;;;;;;;4.63;2.60;;;;;;;14.85;74.42;100487.13;5052973;28;20094;-83
2023/07/20 04:35:49;;;;;;;5.78;2.63;;;;;;;14.96;73.67;100481.09;5052978;28;20040;-87
2023/07/20 04:39:12;;;;;;;6.53;2.72;;;;;;;15.07;72.66;100487.28;5055214;28;20572;-79
2023/07/20 04:42:20;;;;;;;6.57;2.60;;;;;;;15.20;72.46;100491.69;5073033;28;20090;-78
2023/07/20 04:45:26;;;;;;;5.70;2.78;;;;;;;15.13;72.78;100491.28;5073611;28;20054;-85
2023/07/20 04:48:29;;;;;;;4.25;2.13;;;;;;;15.11;73.27;100486.09;5072868;28;20150;-85
2023/07/20 04:51:34;;;;;;;6.55;2.63;;;;;;;15.22;72.74;100489.75;5072608;28;20456;-84
2023/07/20 04:54:37;;;;;;;6.38;2.50;;;;;;;15.10;73.72;100494.97;5073665;28;20067;-81
2023/07/20 04:57:41;;;;;;;7.65;2.75;;;;;;;15.35;73.83;100485.31;5072509;28;20044;-75
2023/07/20 05:00:44;;;;;;;12.48;2.97;;;;;;;15.26;74.21;100481.53;5072696;28;20071;-74
2023/07/20 05:03:50;;;;;;;8.65;2.45;;;;;;;15.34;74.12;100479.16;5072217;28;20047;-73
2023/07/20 05:06:53;;;;;;;6.20;2.28;;;;;;;15.31;73.86;100483.81;5072331;28;20497;-79
2023/07/20 05:09:57;;;;;;;7.25;2.33;;;;;;;15.34;74.10;100478.34;5072879;28;20132;-77
2023/07/20 05:13:00;;;;;;;5.38;2.47;;;;;;;15.41;74.25;100474.31;5072838;28;20052;-80
2023/07/20 05:16:04;;;;;;;4.55;2.70;;;;;;;15.42;74.26;100478.63;5073002;28;20516;-84
2023/07/20 05:19:10;;;;;;;6.75;2.42;;;;;;;15.42;74.96;100483.06;5094906;28;20047;-77
2023/07/20 05:22:14;;;;;;;4.50;2.58;;;;;;;15.53;74.54;100483.09;5070669;28;20044;-78
2023/07/20 05:25:19;;;;;;;5.28;2.72;;;;;;;15.48;74.41;100488.72;5071821;28;20479;-83
2023/07/20 05:28:22;;;;;;;4.63;2.20;;;;;;;15.57;73.96;100495.09;5072895;28;20039;-81
2023/07/20 05:31:26;;;;;;;7.93;2.47;;;;;;;15.54;73.86;100488.28;5072846;28;20044;-78
2023/07/20 05:34:29;;;;;;;7.60;2.50;;;;;;;15.59;73.08;100488.75;5072834;28;20063;-78
2023/07/20 05:37:33;;;;;;;5.82;2.95;;;;;;;15.59;73.43;100494.03;5072726;28;20039;-81
2023/07/20 05:40:44;;;;;;;7.10;2.67;;;;;;;15.67;74.18;100497.94;5072750;28;20078;-83
2023/07/20 05:43:47;;;;;;;7.45;2.65;;;;;;;15.76;73.54;100506.00;5072660;28;20043;-82
2023/07/20 05:46:50;;;;;;;6.53;2.35;;;;;;;15.90;72.66;100497.06;5072594;28;20047;-78
2023/07/20 05:55:03;;;;;;;6.25;2.25;;;;;;;15.84;72.98;100491.41;5072730;28;20069;-83
2023/07/20 06:01:43;;;;;;;6.03;2.63;;;;;;;16.05;72.30;100500.34;5072355;28;20052;-86
2023/07/20 06:04:48;;;;;;;6.65;2.38;;;;;;;16.15;72.36;100509.25;5072543;28;20040;-86
2023/07/20 06:08:00;;;;;;;6.03;2.63;;;;;;;16.32;72.08;100507.94;5072416;28;20462;-85
2023/07/20 06:11:06;;;;;;;7.80;3.65;;;;;;;16.43;71.61;100510.63;5071542;28;20054;-87
2023/07/20 06:14:10;;;;;;;6.28;2.60;;;;;;;16.47;70.42;100512.06;5072541;28;20078;-82
2023/07/20 06:17:13;;;;;;;5.50;2.58;;;;;;;16.58;70.08;100503.28;5072528;28;20099;-86
2023/07/20 06:20:17;;;;;;;7.65;2.60;;;;;;;16.66;70.17;100505.34;5072221;28;20131;-76
2023/07/20 06:23:23;;;;;;;7.40;3.00;;;;;;;16.68;70.49;100508.69;5072564;28;20051;-73
2023/07/20 06:26:29;;;;;;;6.75;2.63;;;;;;;16.74;70.27;100508.22;5072299;28;20120;-75
2023/07/20 06:29:33;;;;;;;5.82;2.13;;;;;;;17.03;68.29;100499.84;5072268;28;20043;-76
2023/07/20 06:32:36;;;;;;;8.55;3.03;;;;;;;17.41;67.11;100504.66;5072698;28;20512;-76
2023/07/20 06:35:44;;;;;;;4.57;2.22;;;;;;;17.60;65.94;100501.38;5075974;28;20082;-73
2023/07/20 06:38:48;;;;;;;6.75;2.42;;;;;;;17.60;65.37;100506.66;5075155;28;20054;-83
2023/07/20 06:41:52;;;;;;;7.97;2.30;;;;;;;17.42;66.02;100507.22;5075447;28;20044;-85
2023/07/20 06:44:56;;;;;;;4.22;2.05;;;;;;;17.38;67.05;100505.75;5075866;28;20071;-80
2023/07/20 06:47:59;;;;;;;7.28;2.30;;;;;;;17.51;65.76;100508.25;5076022;28;20047;-81
2023/07/20 06:51:03;;;;;;;8.48;2.38;;;;;;;17.64;65.89;100508.94;5074764;28;20074;-80
2023/07/20 06:54:06;;;;;;;6.38;2.10;;;;;;;17.77;64.98;100503.50;5075464;28;20059;-80
2023/07/20 06:57:11;;;;;;;6.43;2.55;;;;;;;17.63;65.63;100509.88;5075560;28;20098;-87
2023/07/20 07:05:56;;;;;;;7.25;2.65;;;;;;;17.79;65.24;100506.84;5035978;28;20079;-87
2023/07/20 07:09:05;;;;;;;6.13;3.00;;;;;;;18.11;64.03;100503.31;5035687;28;20046;-86
2023/07/20 07:12:10;;;;;;;6.40;2.50;;;;;;;17.94;64.81;100510.03;5035434;28;20509;-79
2023/07/20 07:15:14;;;;;;;5.70;3.15;;;;;;;17.88;64.96;100516.66;5035561;28;20050;-82
2023/07/20 07:18:23;;;;;;;8.40;2.50;;;;;;;17.84;64.95;100509.97;5034922;28;20528;-85
2023/07/20 07:21:29;;;;;;;6.07;3.03;;;;;;;17.72;65.71;100521.53;5035245;28;20410;-80
2023/07/20 07:24:34;;;;;;;9.10;3.47;;;;;;;17.57;65.97;100515.69;5035352;28;20498;-83
2023/07/20 07:27:37;;;;;;;9.02;2.40;;;;;;;17.72;65.60;100521.53;5035272;28;20580;-84
2023/07/20 07:30:41;;;;;;;6.40;2.33;;;;;;;17.61;66.31;100519.75;5034457;28;20052;-79
2023/07/20 07:33:45;;;;;;;9.32;3.33;;;;;;;17.85;65.33;100522.22;5035043;28;20040;-81
2023/07/20 07:36:48;;;;;;;4.72;2.53;;;;;;;17.82;65.55;100525.09;5034257;28;20084;-81
2023/07/20 07:39:51;;;;;;;7.13;2.42;;;;;;;17.93;65.11;100528.66;5034134;28;20044;-81
2023/07/20 07:42:54;;;;;;;8.68;2.90;;;;;;;17.93;64.99;100528.66;5035167;28;20107;-80
2023/07/20 07:45:58;;;;;;;5.95;2.63;;;;;;;18.12;64.09;100528.81;5034849;28;20092;-81
2023/07/20 07:49:01;;;;;;;6.03;2.53;;;;;;;18.20;63.86;100526.38;5034678;28;20064;-73
2023/07/20 07:52:07;;;;;;;8.73;2.70;;;;;;;18.26;63.38;100520.56;5035498;28;20060;-80
2023/07/20 07:55:11;;;;;;;9.68;3.42;;;;;;;18.10;63.99;100525.47;5033657;28;20461;-81
2023/07/20 07:58:14;;;;;;;7.22;2.88;;;;;;;18.19;63.76;100521.19;5032833;28;20048;-81
2023/07/20 08:01:18;;;;;;;5.50;2.10;;;;;;;18.32;63.40;100527.97;5032516;28;20189;-81
2023/07/20 08:04:22;;;;;;;4.72;2.67;;;;;;;18.42;62.72;100512.16;5071466;28;20067;-81
2023/07/20 08:07:25;;;;;;;10.85;2.92;;;;;;;18.58;61.50;100514.31;5072696;28;20052;-81
2023/07/20 08:10:28;;;;;;;5.40;2.35;;;;;;;18.58;61.66;100507.22;5072681;28;20051;-81
2023/07/20 08:13:32;;;;;;;8.07;2.80;;;;;;;18.68;61.43;100511.72;5073443;28;20044;-81
2023/07/20 08:16:41;;;;;;;5.60;2.20;;;;;;;18.76;60.87;100511.91;5074094;28;20525;-81
2023/07/20 08:19:52;;;;;;;7.47;2.38;;;;;;;18.93;60.68;100519.25;5074092;28;20058;-81
2023/07/20 08:22:55;;;;;;;6.22;2.40;;;;;;;19.14;59.58;100518.31;5073432;28;20101;-81
2023/07/20 08:26:06;;;;;;;5.05;1.73;;;;;;;19.39;57.91;100519.63;5074062;28;20056;-82
2023/07/20 08:29:09;;;;;;;4.25;2.25;;;;;;;19.58;57.41;100514.34;5073862;28;20579;-81
2023/07/20 08:32:14;;;;;;;5.90;2.65;;;;;;;19.37;56.54;100522.44;5073782;28;20062;-81
2023/07/20 08:35:23;;;;;;;6.18;2.50;;;;;;;19.41;56.91;100510.56;5073759;28;20184;-81
2023/07/20 08:38:27;;;;;;;8.48;1.83;;;;;;;19.47;57.28;100514.50;5073748;28;20043;-81
2023/07/20 08:41:30;;;;;;;5.70;2.03;;;;;;;19.32;57.59;100519.34;5072988;28;20097;-81
2023/07/20 08:44:35;;;;;;;6.45;1.80;;;;;;;19.22;58.11;100521.16;5072698;28;20044;-81
2023/07/20 08:47:40;;;;;;;6.68;2.40;;;;;;;19.24;58.13;100522.69;5073512;28;20464;-81
2023/07/20 08:50:45;;;;;;;6.22;2.20;;;;;;;19.54;57.72;100528.03;5073324;28;20043;-82
2023/07/20 08:53:52;;;;;;;8.80;1.95;;;;;;;19.54;57.55;100520.09;5072683;28;20098;-82
2023/07/20 08:56:57;;;;;;;5.63;1.52;;;;;;;19.21;55.90;100535.38;5072976;28;20401;-81
2023/07/20 09:00:07;;;;;;;4.13;1.65;;;;;;;18.95;55.73;100527.03;5072563;28;20524;-82
2023/07/20 09:03:11;;;;;;;3.75;1.30;;;;;;;19.12;54.83;100523.78;5073023;28;20134;-81
2023/07/20 09:06:15;;;;;;;7.38;2.00;;;;;;;19.01;55.18;100537.09;5072383;28;20086;-81
2023/07/20 09:09:19;;;;;;;5.00;1.60;;;;;;;18.86;55.26;100531.34;5073150;28;20059;-81
2023/07/20 09:12:22;;;;;;;8.07;1.90;;;;;;;18.98;54.67;100524.13;5073042;28;20044;-82
2023/07/20 09:15:25;;;;;;;5.40;1.30;;;;;;;19.12;53.64;100522.94;5073199;28;20582;-81
2023/07/20 09:18:31;;;;;;;3.15;1.08;;;;;;;19.38;52.60;100523.28;5073107;28;20106;-82
2023/07/20 09:21:37;;;;;;;2.75;1.15;;;;;;;19.54;51.56;100512.97;5072953;28;20127;-81
2023/07/20 09:32:52;;;;;;;4.45;1.20;;;;;;;19.89;51.80;100516.91;5072047;28;20079;-80
2023/07/20 09:36:02;;;;;;;4.45;1.13;;;;;;;19.62;52.47;100515.78;5072712;28;20086;-80
2023/07/20 09:39:05;;;;;;;6.25;1.05;;;;;;;19.88;52.09;100531.16;5072985;28;20039;-80
2023/07/20 09:42:24;;;;;;;4.38;1.20;;;;;;;19.80;52.06;100531.00;5072578;28;20101;-80
2023/07/20 09:45:38;;;;;;;3.78;1.25;;;;;;;19.75;51.92;100526.13;5072631;28;20066;-80
2023/07/20 09:48:54;;;;;;;4.35;1.25;;;;;;;19.87;50.71;100521.50;5072772;28;20048;-80
2023/07/20 09:52:00;;;;;;;3.42;1.42;;;;;;;19.92;50.72;100519.28;5072681;28;20051;-82
2023/07/20 09:55:04;;;;;;;3.70;1.73;;;;;;;20.04;50.39;100525.25;5072756;28;20058;-80
2023/07/20 09:58:09;;;;;;;2.20;1.00;;;;;;;20.11;49.84;100511.31;5072534;28;20035;-80
2023/07/20 10:01:16;;;;;;;4.55;1.48;;;;;;;20.04;49.71;100517.28;5072649;28;20056;-80
2023/07/20 10:04:22;;;;;;;2.92;0.98;;;;;;;20.05;49.80;100513.69;5072592;28;20684;-80
2023/07/20 10:07:28;;;;;;;6.75;1.08;;;;;;;20.04;49.82;100496.94;5074417;28;20102;-80
2023/07/20 10:10:34;;;;;;;5.53;1.17;;;;;;;20.30;48.90;100499.81;5076362;28;20496;-74
2023/07/20 10:13:39;;;;;;;7.03;1.85;;;;;;;20.40;49.15;100494.47;5076641;28;20046;-72
2023/07/20 10:16:57;;;;;;;2.97;1.10;;;;;;;20.62;48.81;100488.81;5076460;28;20038;-72
2023/07/20 10:20:05;;;;;;;4.47;0.95;;;;;;;20.86;49.33;100490.09;5076352;28;20464;-75
2023/07/20 10:23:13;;;;;;;3.70;1.35;;;;;;;20.83;49.05;100485.09;5076541;28;20173;-74
2023/07/20 10:26:17;;;;;;;4.63;1.10;;;;;;;20.70;48.61;100480.13;5076332;28;20458;-76
2023/07/20 10:29:22;;;;;;;3.70;1.13;;;;;;;21.00;48.86;100472.84;5076119;28;20047;-75
2023/07/20 10:32:33;;;;;;;7.85;1.20;;;;;;;21.02;47.25;100478.84;5075967;28;20035;-82
2023/07/20 10:36:12;;;;;;;3.70;1.10;;;;;;;21.18;44.98;100476.34;5075852;28;20122;-86
2023/07/20 10:40:25;;;;;;;4.05;1.00;;;;;;;21.28;44.67;100458.53;5075522;28;20086;-86
2023/07/20 10:43:30;;;;;;;3.38;1.17;;;;;;;21.18;43.65;100472.84;5013977;28;20486;-85
2023/07/20 10:46:40;;;;;;;5.40;1.13;;;;;;;21.29;43.95;100464.69;5054197;28;20122;-85
2023/07/20 10:50:00;;;;;;;4.57;0.70;;;;;;;21.47;44.18;100472.69;5075566;28;20052;-82
2023/07/20 10:53:16;;;;;;;4.80;1.00;;;;;;;21.34;42.84;100454.41;5075702;28;20563;-80
2023/07/20 10:56:23;;;;;;;4.93;0.90;;;;;;;21.28;42.84;100447.03;5075517;28;20055;-81
2023/07/20 10:59:29;;;;;;;4.60;0.88;;;;;;;21.65;42.36;100454.06;5075270;28;20098;-73
2023/07/20 11:02:42;;;;;;;3.92;1.08;;;;;;;21.50;42.41;100451.09;5073399;28;20051;-76
2023/07/20 11:05:46;;;;;;;3.47;1.02;;;;;;;21.53;42.46;100451.63;5075224;28;20417;-85
2023/07/20 11:09:11;;;;;;;4.18;1.10;;;;;;;21.45;42.17;100448.06;5063271;28;20123;-83
2023/07/20 11:12:18;;;;;;;3.45;1.10;;;;;;;21.49;42.67;100436.97;5075096;28;20075;-85
2023/07/20 11:15:22;;;;;;;4.78;1.30;;;;;;;21.75;42.89;100436.19;5075302;28;20115;-85
2023/07/20 11:18:28;;;;;;;4.22;1.60;;;;;;;21.77;42.27;100429.72;5074748;28;20094;-87
2023/07/20 11:21:37;;;;;;;3.03;1.00;;;;;;;21.73;42.75;100424.84;5074501;28;20075;-83
2023/07/20 11:24:42;;;;;;;4.50;0.80;;;;;;;21.54;42.79;100426.72;5075531;28;20071;-83
2023/07/20 11:27:49;;;;;;;3.72;1.00;;;;;;;21.62;42.94;100422.44;5074444;28;20158;-81
2023/07/20 11:30:55;;;;;;;4.82;1.30;;;;;;;21.76;42.20;100421.88;5075407;28;20093;-81
2023/07/20 11:33:58;;;;;;;3.53;1.05;;;;;;;21.86;41.25;100429.75;5075032;28;20055;-83
2023/07/20 11:37:03;;;;;;;2.95;1.23;;;;;;;22.09;42.20;100412.28;5074985;28;20047;-77
2023/07/20 11:40:12;;;;;;;2.30;0.82;;;;;;;22.28;40.96;100412.09;5075258;28;20059;-79
2023/07/20 11:43:20;;;;;;;3.67;1.00;;;;;;;22.21;40.67;100412.91;5074136;28;20121;-78
2023/07/20 11:46:24;;;;;;;6.60;1.10;;;;;;;22.40;42.03;100406.47;5074896;28;20083;-80
2023/07/20 11:49:27;;;;;;;3.65;1.48;;;;;;;22.68;40.14;100405.25;5074582;28;20046;-79
2023/07/20 11:52:32;;;;;;;5.72;1.10;;;;;;;22.67;39.02;100400.94;5073961;28;20470;-78
2023/07/20 11:55:36;;;;;;;4.97;1.08;;;;;;;22.45;38.92;100393.50;5074562;28;20047;-83
2023/07/20 11:58:45;;;;;;;3.30;0.90;;;;;;;22.19;40.20;100401.56;5074753;28;20410;-74
2023/07/20 12:01:50;;;;;;;3.22;0.98;;;;;;;22.23;39.96;100400.25;5074179;28;20089;-79
2023/07/20 12:04:55;;;;;;;2.80;0.82;;;;;;;22.10;40.52;100394.47;5071792;28;20050;-81
2023/07/20 12:08:07;;;;;;;2.63;0.90;;;;;;;22.04;40.89;100396.78;5074146;28;20093;-82
2023/07/20 12:11:11;;;;;;;2.90;0.93;;;;;;;21.89;40.76;100390.38;5074278;28;20051;-78
2023/07/20 12:14:19;;;;;;;4.18;1.00;;;;;;;21.80;41.14;100388.66;5074478;28;20054;-81
2023/07/20 12:17:57;;;;;;;3.42;1.00;;;;;;;21.94;40.77;100388.06;5073215;28;20039;-76
2023/07/20 12:21:05;;;;;;;2.65;0.80;;;;;;;22.15;40.99;100384.19;5073408;28;20094;-79
2023/07/20 12:24:13;;;;;;;5.13;1.20;;;;;;;22.18;41.25;100387.41;5073901;28;20040;-77
2023/07/20 12:27:17;;;;;;;3.47;1.40;;;;;;;21.96;41.04;100386.09;5073904;28;20516;-76
2023/07/20 12:30:21;;;;;;;2.47;0.85;;;;;;;21.87;41.17;100396.84;5073176;28;20544;-77
2023/07/20 12:33:26;;;;;;;2.95;1.08;;;;;;;21.90;41.47;100386.72;5075019;28;20036;-74
2023/07/20 12:36:31;;;;;;;3.08;1.05;;;;;;;22.08;41.27;100391.13;5074126;28;20125;-76
2023/07/20 12:39:40;;;;;;;1.80;0.70;;;;;;;22.20;41.34;100387.25;5072906;28;20094;-76
2023/07/20 12:42:44;;;;;;;5.72;1.00;;;;;;;22.42;41.33;100384.00;5073830;28;20098;-75
2023/07/20 12:45:48;;;;;;;2.97;0.90;;;;;;;22.57;41.13;100388.75;5073543;28;20048;-75
2023/07/20 12:48:53;;;;;;;3.33;0.90;;;;;;;22.59;40.23;100384.06;5073859;28;20555;-75
2023/07/20 12:51:58;;;;;;;4.50;0.90;;;;;;;22.61;40.34;100392.75;5073601;28;20137;-75
2023/07/20 12:55:07;;;;;;;3.72;1.20;;;;;;;22.89;40.21;100378.16;5073528;28;20113;-76
2023/07/20 12:58:12;;;;;;;5.45;1.08;;;;;;;22.92;41.08;100380.50;5073752;28;20051;-77
2023/07/20 13:01:16;;;;;;;3.58;1.05;;;;;;;22.71;41.20;100378.28;5074095;28;20036;-76
2023/07/20 13:04:19;;;;;;;2.75;0.90;;;;;;;22.65;40.57;100378.09;5074432;28;20047;-76
2023/07/20 13:07:37;;;;;;;3.20;0.98;;;;;;;22.70;41.11;100373.13;5074494;28;20050;-75
2023/07/20 13:11:04;;;;;;;4.65;2.10;;;;;;;22.41;40.89;100374.34;5072456;28;20063;-75
2023/07/20 13:14:21;;;;;;;4.65;1.10;;;;;;;22.49;40.34;100374.41;5074238;28;20113;-75
2023/07/20 13:17:27;;;;;;;4.60;1.05;;;;;;;22.31;40.14;100362.16;5074894;28;20070;-75
2023/07/20 13:20:30;;;;;;;3.67;1.55;;;;;;;22.18;40.30;100370.59;5073429;28;20075;-75
2023/07/20 13:23:33;;;;;;;5.93;0.85;;;;;;;22.26;40.71;100373.28;5074389;28;20039;-76
2023/07/20 13:26:38;;;;;;;4.95;1.10;;;;;;;22.43;40.59;100371.53;5071982;28;20051;-76
2023/07/20 13:29:43;;;;;;;3.25;1.20;;;;;;;22.43;39.69;100369.72;5072040;28;20047;-77
2023/07/20 13:32:49;;;;;;;4.20;1.17;;;;;;;22.49;39.60;100371.75;5072786;28;20086;-75
2023/07/20 13:35:53;;;;;;;3.30;1.00;;;;;;;22.62;39.54;100368.63;5072841;28;20043;-77
2023/07/20 13:38:58;;;;;;;3.78;1.25;;;;;;;22.68;38.72;100359.13;5072982;28;20094;-77
2023/07/20 13:42:04;;;;;;;2.28;1.10;;;;;;;22.78;39.45;100357.13;5071468;28;20036;-77
2023/07/20 13:45:09;;;;;;;4.18;1.20;;;;;;;23.05;38.83;100357.88;5072734;28;20063;-77
2023/07/20 13:48:17;;;;;;;3.35;1.17;;;;;;;22.88;38.77;100357.84;5072914;28;20114;-77
2023/07/20 13:51:30;;;;;;;3.92;1.17;;;;;;;23.14;38.84;100356.91;5072867;28;20055;-78
2023/07/20 13:54:33;;;;;;;4.03;0.98;;;;;;;23.18;38.34;100355.56;5072347;28;20563;-79
2023/07/20 13:57:42;;;;;;;3.67;0.98;;;;;;;23.37;38.13;100347.22;5072683;28;20044;-78
2023/07/20 14:01:01;;;;;;;2.55;0.85;;;;;;;23.79;37.58;100340.03;5072246;28;20517;-78
2023/07/20 14:05:20;;;;;;;;;;;;;;;;;;;;;
2023/07/20 14:09:14;;;;;;;6.22;1.08;;;;;;;23.75;37.47;100336.88;5032511;28;20068;-79
2023/07/20 14:12:17;;;;;;;2.97;1.08;;;;;;;23.70;37.67;100331.19;5032391;28;20045;-79
2023/07/20 14:15:24;;;;;;;2.53;1.00;;;;;;;24.51;36.65;100321.25;5032328;28;20044;-78
2023/07/20 14:18:29;;;;;;;4.53;1.70;;;;;;;24.77;36.76;100327.09;5032030;28;20418;-79
2023/07/20 14:25:07;;;;;;;3.58;1.13;;;;;;;25.05;34.57;100326.56;5032232;28;20072;-77
2023/07/20 14:28:12;;;;;;;4.18;1.00;;;;;;;24.77;34.60;100320.91;5032100;28;20072;-81
2023/07/20 14:31:19;;;;;;;5.85;1.27;;;;;;;25.63;33.77;100313.53;5032057;28;20049;-78
2023/07/20 14:34:23;;;;;;;3.08;0.98;;;;;;;26.41;30.34;100312.09;5032351;28;20067;-80
2023/07/20 14:37:27;;;;;;;3.03;1.38;;;;;;;26.81;31.43;100301.84;5032222;28;20040;-76
2023/07/20 14:40:30;;;;;;;4.07;1.10;;;;;;;26.07;31.94;100305.53;5032195;28;20060;-76
2023/07/20 14:43:33;;;;;;;3.25;1.10;;;;;;;24.40;34.42;100305.56;5031655;28;20056;-78
2023/07/20 14:46:37;;;;;;;2.20;1.05;;;;;;;23.88;35.32;100306.97;5032335;28;20418;-78
2023/07/20 14:49:46;;;;;;;4.30;1.05;;;;;;;24.15;36.03;100297.66;5031277;28;20517;-77
2023/07/20 14:53:05;;;;;;;5.93;1.10;;;;;;;23.79;35.68;100302.66;5029935;28;20125;-75
2023/07/20 14:56:08;;;;;;;3.60;0.80;;;;;;;23.47;36.81;100298.19;5034988;28;20055;-74
2023/07/20 14:59:12;;;;;;;10.95;2.00;;;;;;;23.65;36.73;100290.81;5021327;28;20533;-77